This is the latest recevied weather packets stored in our database for station/object KF6YUA. If no packets are shown the sender has not sent any weather packets the latest 1 day(s).
| Time | Temp. | Humidity | Pressure | Rain* | Wind** | Luminosity | Snow |
|---|---|---|---|---|---|---|---|
| 1778031772 | 15° C | 80% | 1017.4 hPa | 0 mm | 0.89 m/s, 161° | 54 W/m² | - |
| 1778031469 | 15° C | 80% | 1017.4 hPa | 0 mm | 0 m/s | 62 W/m² | - |
| 1778031166 | 15.56° C | 80% | 1017.5 hPa | 0 mm | 0 m/s | 71 W/m² | - |
| 1778030862 | 15° C | 80% | 1017.4 hPa | 0 mm | 0 m/s | 81 W/m² | - |
| 1778030559 | 15° C | 79% | 1017.6 hPa | 0 mm | 3.13 m/s, 202° | 83 W/m² | - |
| 1778030257 | 15.56° C | 79% | 1017.4 hPa | 0 mm | 1.34 m/s, 178° | 86 W/m² | - |
| 1778029953 | 15.56° C | 78% | 1017.4 hPa | 0 mm | 0.89 m/s, 169° | 87 W/m² | - |
| 1778029651 | 15.56° C | 78% | 1017.5 hPa | 0 mm | 0 m/s | 95 W/m² | - |
| 1778029348 | 15.56° C | 78% | 1017.4 hPa | 0 mm | 0 m/s | 106 W/m² | - |
| 1778029046 | 15.56° C | 78% | 1017.3 hPa | 0 mm | 0.45 m/s, 192° | 109 W/m² | - |
| 1778028742 | 16.11° C | 77% | 1017.5 hPa | 0 mm | 0 m/s | 120 W/m² | - |
| 1778028438 | 16.11° C | 79% | 1017.5 hPa | 0 mm | 0 m/s | 117 W/m² | - |
| 1778028136 | 15.56° C | 78% | 1017.6 hPa | 0 mm | 0 m/s | 116 W/m² | - |
| 1778027832 | 15.56° C | 79% | 1017.2 hPa | 0 mm | 0.45 m/s, 173° | 124 W/m² | - |
| 1778027528 | 16.11° C | 76% | 1017.2 hPa | 0 mm | 2.24 m/s, 217° | 142 W/m² | - |
| 1778027224 | 16.11° C | 77% | 1017.3 hPa | 0 mm | 0 m/s | 165 W/m² | - |
| 1778026920 | 16.11° C | 77% | 1017.3 hPa | 0 mm | 0.89 m/s, 190° | 153 W/m² | - |
| 1778026616 | 16.67° C | 77% | 1017.3 hPa | 0 mm | 0 m/s | 157 W/m² | - |
| 1778026314 | 16.67° C | 76% | 1017 hPa | 0 mm | 0.89 m/s, 188° | 165 W/m² | - |
| 1778026011 | 16.67° C | 77% | 1017.2 hPa | 0 mm | 0 m/s | 174 W/m² | - |
| 1778025708 | 16.67° C | 75% | 1017 hPa | 0 mm | 1.34 m/s, 183° | 188 W/m² | - |
| 1778025406 | 16.67° C | 77% | 1017 hPa | 0 mm | 0.45 m/s, 166° | 186 W/m² | - |
| 1778025103 | 16.67° C | 76% | 1017.2 hPa | 0 mm | 0.45 m/s, 151° | 184 W/m² | - |
| 1778024800 | 16.67° C | 74% | 1017.2 hPa | 0 mm | 0.89 m/s, 196° | 181 W/m² | - |
| 1778024497 | 17.78° C | 74% | 1017.2 hPa | 0 mm | 0 m/s | 218 W/m² | - |
* Rain latest hour (hover to see other rain measurements)
** Current wind speed in m/s (hover to see current wind gust speed)